Time;durP1;ratioP1;P1;durP2;ratioP2;P2;SDS_P1;SDS_P2;PMS_P1;PMS_P2;Temp;Humidity;BMP_temperature;BMP_pressure;BME280_temperature;BME280_humidity;BME280_pressure;Samples;Min_cycle;Max_cycle;Signal;HPM_P1;HPM_P2
2022/07/26 00:01:15;;;;;;;5.38;5.18;;;;;;;18.54;71.11;101057.66;6040560;23;20023;-71
2022/07/26 00:03:41;;;;;;;5.22;5.03;;;;;;;16.51;71.07;100750.53;6016153;23;20102;-74
2022/07/26 00:06:08;;;;;;;5.30;5.10;;;;;;;18.59;71.45;101102.50;6050785;23;20010;-71
2022/07/26 00:08:34;;;;;;;6.63;6.32;;;;;;;18.42;72.21;101072.81;6059727;23;20041;-74
2022/07/26 00:11:01;;;;;;;5.30;5.10;;;;;;;18.68;72.57;101121.22;6026124;23;20016;-75
2022/07/26 00:13:33;;;;;;;5.30;5.10;;;;;;;18.70;72.70;101129.94;6021770;23;20031;-73
2022/07/26 00:16:01;;;;;;;5.10;4.90;;;;;;;18.68;73.28;101138.97;6054726;23;20603;-73
2022/07/26 00:18:27;;;;;;;5.78;5.50;;;;;;;18.26;73.24;101075.81;6042579;23;20116;-73
2022/07/26 00:20:54;;;;;;;5.40;5.20;;;;;;;18.46;74.15;101118.56;6056162;23;20029;-74
2022/07/26 00:23:21;;;;;;;5.20;5.00;;;;;;;18.28;74.30;101095.16;6034091;23;20120;-73
2022/07/26 00:25:47;;;;;;;5.30;5.10;;;;;;;18.33;75.03;101113.38;6005293;23;20098;-72
2022/07/26 00:28:14;;;;;;;5.15;4.95;;;;;;;18.23;75.41;101102.63;6049266;23;20031;-73
2022/07/26 00:30:40;;;;;;;6.10;5.80;;;;;;;18.20;75.46;101108.19;6020368;23;20085;-73
2022/07/26 00:33:07;;;;;;;5.95;5.65;;;;;;;18.25;76.57;101137.88;6023327;23;20030;-74
2022/07/26 00:35:34;;;;;;;6.28;5.97;;;;;;;18.02;77.40;101109.59;6018322;23;20589;-73
2022/07/26 00:38:00;;;;;;;5.35;5.15;;;;;;;17.92;77.16;101107.66;6013715;23;20445;-73
2022/07/26 00:40:26;;;;;;;5.30;5.10;;;;;;;17.64;77.60;101068.19;6053752;23;20030;-73
2022/07/26 00:42:53;;;;;;;5.30;5.10;;;;;;;17.51;78.55;101061.16;6025944;23;20033;-74
2022/07/26 00:45:19;;;;;;;5.30;5.10;;;;;;;17.83;79.00;101134.03;6082339;23;20022;-74
2022/07/26 00:47:46;;;;;;;5.68;5.47;;;;;;;17.52;78.71;101065.53;6039168;23;20034;-73
2022/07/26 00:50:15;;;;;;;5.07;4.88;;;;;;;17.92;78.80;101139.53;6073703;23;20080;-73
2022/07/26 00:52:44;;;;;;;5.18;4.97;;;;;;;17.73;79.21;101120.59;6070784;23;20097;-74
2022/07/26 00:55:11;;;;;;;5.00;4.80;;;;;;;17.41;80.09;101067.31;6067240;23;20388;-72
2022/07/26 00:57:39;;;;;;;6.40;6.10;;;;;;;17.65;80.80;101117.69;6080720;23;20049;-73
2022/07/26 01:00:10;;;;;;;5.18;4.97;;;;;;;17.71;80.82;101133.97;6075124;23;20021;-73
2022/07/26 01:02:36;;;;;;;6.47;6.18;;;;;;;16.45;81.47;100930.31;6071336;23;20032;-72
2022/07/26 01:05:03;;;;;;;5.30;5.10;;;;;;;16.43;81.51;100940.16;6079482;23;20090;-74
2022/07/26 01:07:30;;;;;;;6.32;6.03;;;;;;;17.59;80.97;101124.28;6063467;23;20034;-74
2022/07/26 01:09:56;;;;;;;5.10;4.90;;;;;;;17.29;81.97;101092.94;6052691;23;20022;-74
2022/07/26 01:12:23;;;;;;;5.18;4.97;;;;;;;17.21;81.86;101087.34;6075397;23;20081;-74
2022/07/26 01:14:49;;;;;;;5.20;5.00;;;;;;;16.59;82.04;100988.44;6069737;23;20592;-74
2022/07/26 01:17:16;;;;;;;5.00;4.80;;;;;;;17.37;82.56;101129.50;6081998;23;20034;-72
2022/07/26 01:19:42;;;;;;;6.35;6.05;;;;;;;17.29;83.47;101122.97;6041320;23;20077;-74
2022/07/26 01:22:09;;;;;;;5.20;5.00;;;;;;;16.77;83.74;101062.25;6085627;23;20026;-73
2022/07/26 01:24:40;;;;;;;6.53;6.22;;;;;;;16.85;83.80;101079.31;6048670;23;20032;-73
2022/07/26 01:27:06;;;;;;;5.30;5.10;;;;;;;16.95;84.77;101098.91;6031830;23;20029;-73
2022/07/26 01:29:33;;;;;;;7.63;7.22;;;;;;;16.82;85.05;101092.81;6051965;23;20021;-74
2022/07/26 01:32:02;;;;;;;5.30;5.10;;;;;;;16.51;86.13;101038.47;6052293;23;20083;-73
2022/07/26 01:34:29;;;;;;;6.40;6.10;;;;;;;16.69;86.75;101068.94;6036529;23;20067;-74
2022/07/26 01:36:56;;;;;;;5.22;4.93;;;;;;;16.73;86.41;101075.72;6078193;23;20576;-74
2022/07/26 01:39:22;;;;;;;5.10;4.90;;;;;;;17.11;86.52;101130.44;6070363;23;20018;-73
2022/07/26 01:41:49;;;;;;;5.18;4.97;;;;;;;17.09;86.78;101126.22;6054620;23;20514;-73
2022/07/26 01:44:15;;;;;;;5.45;5.15;;;;;;;16.58;87.96;101037.09;6044502;23;20365;-73
2022/07/26 01:46:42;;;;;;;6.85;6.53;;;;;;;16.58;87.56;101033.56;6045932;23;20404;-73
2022/07/26 01:49:08;;;;;;;5.28;5.07;;;;;;;16.78;86.97;101071.88;6055022;23;20026;-72
2022/07/26 01:51:35;;;;;;;7.30;6.95;;;;;;;17.13;87.38;101117.09;6074294;23;20038;-73
2022/07/26 01:54:01;;;;;;;5.47;5.28;;;;;;;16.93;87.52;101100.81;6077042;23;20020;-72
2022/07/26 01:56:28;;;;;;;5.75;5.50;;;;;;;17.05;88.34;101130.91;6047970;23;20034;-74
2022/07/26 01:58:54;;;;;;;5.40;5.20;;;;;;;17.04;88.72;101131.00;6063145;23;20019;-73
2022/07/26 02:01:21;;;;;;;4.88;4.68;;;;;;;16.70;89.31;101064.50;6021357;23;20026;-72
2022/07/26 02:04:06;;;;;;;4.90;4.70;;;;;;;16.54;88.95;101038.28;6052257;23;20047;-72
2022/07/26 02:06:33;;;;;;;5.72;5.53;;;;;;;17.21;88.29;101133.28;6051709;23;20084;-73
2022/07/26 02:09:00;;;;;;;5.15;4.95;;;;;;;16.78;87.29;101055.97;6073430;23;20077;-71
2022/07/26 02:11:27;;;;;;;5.18;4.97;;;;;;;17.23;88.25;101128.72;6036353;23;20100;-73
2022/07/26 02:13:54;;;;;;;5.30;5.10;;;;;;;17.23;88.73;101146.44;6069338;23;20021;-73
2022/07/26 02:16:20;;;;;;;5.00;4.80;;;;;;;17.24;88.24;101132.19;6079626;23;20419;-72
2022/07/26 02:18:47;;;;;;;5.15;4.95;;;;;;;17.11;88.73;101126.97;6068755;23;20375;-73
2022/07/26 02:21:13;;;;;;;5.10;4.90;;;;;;;17.07;89.21;101102.47;6065309;23;20027;-72
2022/07/26 02:23:39;;;;;;;6.50;6.20;;;;;;;16.70;88.93;101048.63;6072186;23;20014;-74
2022/07/26 02:26:07;;;;;;;5.18;4.97;;;;;;;17.19;89.65;101127.25;6020639;23;20019;-72
2022/07/26 02:28:34;;;;;;;5.55;5.35;;;;;;;17.11;90.13;101125.16;6082339;23;20656;-72
2022/07/26 02:31:00;;;;;;;5.18;4.97;;;;;;;16.65;90.19;101070.13;6055045;23;20014;-74
2022/07/26 02:33:27;;;;;;;5.65;5.35;;;;;;;16.88;90.41;101113.56;6080069;23;20034;-74
2022/07/26 02:35:53;;;;;;;5.30;5.10;;;;;;;16.74;91.44;101103.94;6076739;23;20010;-72
2022/07/26 02:38:20;;;;;;;5.20;5.00;;;;;;;16.65;91.99;101107.22;6040823;23;20671;-72
2022/07/26 02:40:49;;;;;;;5.30;5.10;;;;;;;16.40;92.35;101059.56;6078181;23;20320;-74
2022/07/26 02:43:15;;;;;;;5.00;4.80;;;;;;;16.64;92.83;101108.19;6073555;23;20037;-73
2022/07/26 02:45:42;;;;;;;6.53;6.22;;;;;;;16.71;93.18;101129.81;6050798;23;20014;-74
2022/07/26 02:48:09;;;;;;;5.18;4.97;;;;;;;16.54;94.75;101112.47;6081693;23;20038;-73
2022/07/26 02:50:35;;;;;;;6.75;6.45;;;;;;;16.61;94.82;101128.75;6069445;23;20046;-72
2022/07/26 02:53:02;;;;;;;5.20;5.00;;;;;;;16.11;94.93;101043.94;6078712;23;20020;-73
2022/07/26 02:55:29;;;;;;;4.97;4.78;;;;;;;16.38;95.65;101099.44;6082595;23;20036;-72
2022/07/26 02:57:55;;;;;;;5.10;4.90;;;;;;;15.98;95.81;101046.63;6074225;23;20699;-72
2022/07/26 03:00:24;;;;;;;6.20;5.90;;;;;;;16.56;95.21;101113.19;6047083;23;20216;-73
2022/07/26 03:02:51;;;;;;;5.38;5.07;;;;;;;16.13;95.34;101037.59;6071426;23;20030;-73
2022/07/26 03:05:18;;;;;;;5.15;4.95;;;;;;;16.31;95.29;101075.16;6055839;23;20014;-72
2022/07/26 03:07:46;;;;;;;5.50;5.30;;;;;;;16.29;95.85;101078.88;6050359;23;20679;-73
2022/07/26 03:10:12;;;;;;;5.20;5.00;;;;;;;16.22;95.70;101057.28;6046138;23;20615;-72
2022/07/26 03:12:39;;;;;;;6.60;6.30;;;;;;;16.31;96.53;101083.13;6081284;23;20361;-73
2022/07/26 03:15:07;;;;;;;5.18;4.97;;;;;;;16.61;97.29;101137.56;6051500;23;20104;-73
2022/07/26 03:17:34;;;;;;;5.22;5.03;;;;;;;16.57;97.00;101132.59;6084417;23;20013;-74
2022/07/26 03:20:01;;;;;;;5.20;5.00;;;;;;;16.21;98.68;101082.06;6055864;23;20010;-72
2022/07/26 03:22:27;;;;;;;5.93;5.68;;;;;;;16.08;98.58;101063.56;6046413;23;20021;-75
2022/07/26 03:24:54;;;;;;;5.18;4.97;;;;;;;16.62;98.09;101139.25;6076756;23;20021;-74
2022/07/26 03:27:20;;;;;;;5.05;4.85;;;;;;;16.47;98.07;101109.38;6077648;23;20682;-73
2022/07/26 03:29:47;;;;;;;5.60;5.32;;;;;;;16.66;97.96;101129.28;6057522;23;20187;-73
2022/07/26 03:32:13;;;;;;;5.45;5.20;;;;;;;16.28;97.70;101071.91;6054728;23;20014;-73
2022/07/26 03:34:39;;;;;;;6.45;6.15;;;;;;;16.16;97.45;101052.44;6044406;23;20029;-73
2022/07/26 03:37:06;;;;;;;5.15;4.95;;;;;;;16.08;97.60;101030.94;6054261;23;20023;-71
2022/07/26 03:39:32;;;;;;;6.63;6.32;;;;;;;16.69;98.37;101137.00;6049965;23;20036;-75
2022/07/26 03:41:58;;;;;;;5.40;5.10;;;;;;;15.68;99.35;100978.94;6077787;23;20026;-74
2022/07/26 03:44:25;;;;;;;4.95;4.75;;;;;;;16.71;99.02;101146.53;6072867;23;20385;-72
2022/07/26 03:46:51;;;;;;;4.85;4.65;;;;;;;16.57;98.97;101120.19;6057260;23;20495;-73
2022/07/26 03:49:18;;;;;;;4.90;4.70;;;;;;;16.58;99.01;101134.25;6044894;23;20041;-71
2022/07/26 03:51:45;;;;;;;5.65;5.45;;;;;;;16.74;98.76;101145.50;6078034;23;20026;-73
2022/07/26 03:54:11;;;;;;;4.95;4.75;;;;;;;16.87;99.12;101145.50;6048540;23;20010;-74
2022/07/26 03:56:39;;;;;;;6.15;5.85;;;;;;;16.94;98.28;101138.81;6054841;23;20027;-75
2022/07/26 03:59:07;;;;;;;4.90;4.70;;;;;;;16.59;97.99;101081.16;6071410;23;20010;-73
2022/07/26 04:01:40;;;;;;;6.25;5.95;;;;;;;16.59;97.16;101075.88;6047911;23;20021;-73
2022/07/26 04:04:08;;;;;;;4.85;4.65;;;;;;;16.92;97.69;101120.34;6052810;23;20019;-75
2022/07/26 04:06:36;;;;;;;4.80;4.60;;;;;;;17.09;97.53;101140.31;6059822;23;20049;-73
2022/07/26 04:09:04;;;;;;;4.82;4.63;;;;;;;17.11;97.48;101137.56;6074248;23;20225;-72
2022/07/26 04:11:32;;;;;;;4.97;4.78;;;;;;;17.07;97.99;101144.06;6079434;23;20042;-70
2022/07/26 04:13:59;;;;;;;5.70;5.40;;;;;;;16.62;98.49;101062.41;6079740;23;20024;-71
2022/07/26 04:16:26;;;;;;;5.07;4.88;;;;;;;17.13;98.91;101140.97;6079458;23;20014;-72
2022/07/26 04:18:53;;;;;;;5.15;4.95;;;;;;;16.64;98.69;101067.59;6076646;23;20042;-72
2022/07/26 04:21:19;;;;;;;5.05;4.85;;;;;;;16.41;98.94;101021.56;6069096;23;20018;-71
2022/07/26 04:23:46;;;;;;;6.10;5.80;;;;;;;17.21;98.04;101141.25;6051933;23;20022;-71
2022/07/26 04:26:16;;;;;;;5.20;5.00;;;;;;;17.25;98.11;101140.06;6078514;23;20522;-74
2022/07/26 04:28:43;;;;;;;6.10;5.80;;;;;;;17.27;98.04;101142.59;6080322;23;20022;-74
2022/07/26 04:31:09;;;;;;;5.10;4.90;;;;;;;17.22;99.41;101142.09;6074924;23;20030;-73
2022/07/26 04:33:36;;;;;;;6.47;6.18;;;;;;;16.97;99.89;101106.75;6080075;23;20267;-73
2022/07/26 04:36:02;;;;;;;4.95;4.75;;;;;;;15.65;99.80;100894.47;6049020;23;20018;-73
2022/07/26 04:38:29;;;;;;;5.38;5.18;;;;;;;17.26;99.68;101151.50;6070847;23;20124;-75
2022/07/26 04:40:56;;;;;;;5.10;4.90;;;;;;;17.31;99.25;101149.38;6075665;23;20020;-74
2022/07/26 04:43:24;;;;;;;5.28;5.07;;;;;;;16.96;99.24;101073.25;6075750;23;20123;-76
2022/07/26 04:45:50;;;;;;;5.30;5.00;;;;;;;16.90;98.89;101069.25;6077762;23;20028;-75
2022/07/26 04:48:17;;;;;;;4.90;4.70;;;;;;;16.82;98.76;101052.19;6073287;23;20046;-73
2022/07/26 04:50:43;;;;;;;6.07;5.78;;;;;;;17.48;98.32;101148.13;6076025;23;20025;-74
2022/07/26 04:53:10;;;;;;;5.15;4.88;;;;;;;17.12;98.64;101095.03;6074734;23;20025;-71
2022/07/26 04:55:37;;;;;;;6.18;5.88;;;;;;;17.08;97.92;101082.13;6045823;23;20033;-74
2022/07/26 04:58:04;;;;;;;5.47;5.28;;;;;;;17.43;98.07;101129.91;6054877;23;20569;-72
2022/07/26 05:00:30;;;;;;;5.10;4.90;;;;;;;17.50;98.25;101141.75;6031278;23;20455;-73
2022/07/26 05:02:58;;;;;;;5.00;4.80;;;;;;;17.55;98.77;101141.41;6071479;23;20475;-72
2022/07/26 05:05:27;;;;;;;5.18;4.97;;;;;;;17.54;98.00;101145.88;6074218;23;20018;-73
2022/07/26 05:07:57;;;;;;;5.50;5.20;;;;;;;17.63;97.86;101146.16;6073028;23;20026;-72
2022/07/26 05:10:33;;;;;;;5.50;5.10;;;;;;;17.29;97.39;101075.22;6075801;23;20080;-74
2022/07/26 05:13:02;;;;;;;5.30;5.10;;;;;;;17.71;97.10;101141.94;6081292;23;20084;-72
2022/07/26 05:15:30;;;;;;;6.07;5.78;;;;;;;17.77;96.90;101147.78;6073363;23;20041;-70
2022/07/26 05:18:05;;;;;;;5.13;4.93;;;;;;;17.85;96.40;101137.44;6079389;23;20058;-72
2022/07/26 05:20:35;;;;;;;6.38;6.07;;;;;;;17.94;96.05;101150.00;6033036;23;20106;-72
2022/07/26 05:23:02;;;;;;;5.25;5.05;;;;;;;17.72;96.40;101097.66;6040354;23;20045;-72
2022/07/26 05:25:29;;;;;;;5.60;5.38;;;;;;;17.74;96.42;101085.16;6070076;23;20112;-72
2022/07/26 05:27:55;;;;;;;5.05;4.85;;;;;;;17.78;94.90;101086.59;6063659;23;20018;-73
2022/07/26 05:30:22;;;;;;;5.07;4.88;;;;;;;18.11;95.39;101140.75;6071629;23;20496;-71
2022/07/26 05:32:49;;;;;;;6.43;6.03;;;;;;;17.89;95.60;101093.75;6040888;23;20127;-72
2022/07/26 05:35:15;;;;;;;5.10;4.90;;;;;;;17.87;94.95;101063.81;6076889;23;20025;-71
2022/07/26 05:37:42;;;;;;;6.35;6.05;;;;;;;18.37;94.31;101128.13;6071649;23;20018;-71
2022/07/26 05:40:09;;;;;;;5.10;4.90;;;;;;;18.47;93.39;101136.22;6016710;23;20006;-73
2022/07/26 05:42:36;;;;;;;6.03;5.72;;;;;;;18.44;93.20;101133.78;6041126;23;20155;-70
2022/07/26 05:45:04;;;;;;;5.35;5.15;;;;;;;18.46;92.92;101130.06;6018382;23;20235;-73
2022/07/26 05:47:31;;;;;;;5.40;5.20;;;;;;;18.64;91.79;101126.88;6045791;23;20050;-72
2022/07/26 05:49:58;;;;;;;5.30;5.00;;;;;;;18.65;91.81;101139.22;6043054;23;20015;-71
2022/07/26 05:52:24;;;;;;;5.22;5.03;;;;;;;18.59;91.89;101118.47;6044775;23;20106;-71
2022/07/26 05:54:51;;;;;;;5.30;5.10;;;;;;;18.68;91.25;101138.97;6039180;23;20028;-71
2022/07/26 05:57:17;;;;;;;5.10;4.90;;;;;;;18.04;91.33;101039.47;6043961;23;20444;-71
2022/07/26 05:59:43;;;;;;;6.40;6.10;;;;;;;18.31;92.33;101086.06;6019547;23;20175;-71
2022/07/26 06:02:10;;;;;;;5.20;5.00;;;;;;;18.69;91.75;101136.19;6038320;23;20190;-72
2022/07/26 06:04:36;;;;;;;6.55;6.20;;;;;;;18.75;92.25;101129.56;6014216;23;20032;-72
2022/07/26 06:07:03;;;;;;;5.18;4.97;;;;;;;18.48;91.75;101068.78;6058971;23;20333;-72
2022/07/26 06:09:30;;;;;;;6.47;6.07;;;;;;;18.93;91.54;101130.75;6028637;23;20019;-72
2022/07/26 06:11:57;;;;;;;5.30;5.10;;;;;;;19.03;90.78;101130.88;6049659;23;20047;-71
2022/07/26 06:14:23;;;;;;;5.20;5.00;;;;;;;18.87;89.47;101078.06;6029364;23;20018;-72
2022/07/26 06:16:50;;;;;;;5.88;5.63;;;;;;;19.03;88.60;101114.91;6040462;23;20011;-71
2022/07/26 06:19:16;;;;;;;6.30;5.90;;;;;;;19.03;89.06;101117.56;6049739;23;20034;-72
2022/07/26 06:21:44;;;;;;;5.00;4.80;;;;;;;19.17;89.05;101129.75;6044094;23;20068;-71
2022/07/26 06:24:11;;;;;;;5.72;5.43;;;;;;;18.99;89.05;101100.16;6038384;23;20022;-70
2022/07/26 06:26:38;;;;;;;6.63;6.25;;;;;;;19.16;89.33;101135.19;6043767;23;21590;-71
2022/07/26 06:29:05;;;;;;;5.55;5.28;;;;;;;19.24;89.07;101140.72;6049577;23;20038;-71
2022/07/26 06:31:31;;;;;;;6.40;5.90;;;;;;;18.92;89.19;101075.03;6043368;23;20014;-72
2022/07/26 06:33:58;;;;;;;4.97;4.78;;;;;;;19.25;89.36;101148.59;6036049;23;20166;-71
2022/07/26 06:36:24;;;;;;;5.65;5.32;;;;;;;18.81;89.13;101075.06;6048753;23;20315;-75
2022/07/26 06:38:56;;;;;;;5.22;5.03;;;;;;;19.37;88.24;101151.22;6015806;23;20019;-69
2022/07/26 06:41:22;;;;;;;5.20;5.00;;;;;;;19.35;88.69;101159.34;6050297;23;20030;-74
2022/07/26 06:43:49;;;;;;;5.68;5.43;;;;;;;19.39;88.53;101163.44;6021001;23;20117;-72
2022/07/26 06:46:15;;;;;;;4.93;4.72;;;;;;;19.46;87.85;101161.94;6039025;23;20050;-73
2022/07/26 06:48:42;;;;;;;6.35;6.05;;;;;;;19.00;88.78;101104.50;6027130;23;20324;-73
2022/07/26 06:51:17;;;;;;;5.05;4.85;;;;;;;19.44;89.40;101163.03;6037750;23;20047;-73
2022/07/26 06:53:44;;;;;;;5.55;5.35;;;;;;;19.36;89.23;101163.66;6035059;23;20138;-70
2022/07/26 06:56:13;;;;;;;5.38;5.18;;;;;;;18.38;88.15;100993.44;6045725;23;20026;-72
2022/07/26 06:58:41;;;;;;;6.47;6.18;;;;;;;19.45;88.49;101175.41;6041489;23;20081;-70
2022/07/26 07:01:07;;;;;;;5.30;5.10;;;;;;;19.44;88.22;101153.22;6042586;23;20019;-71
2022/07/26 07:03:34;;;;;;;6.68;6.38;;;;;;;19.67;87.75;101166.47;6005946;23;20053;-71
2022/07/26 07:06:00;;;;;;;5.68;5.28;;;;;;;19.30;86.51;101094.97;6017233;23;20436;-71
2022/07/26 07:08:27;;;;;;;5.82;5.53;;;;;;;19.49;86.02;101065.88;6046173;23;20499;-72
2022/07/26 07:10:55;;;;;;;5.70;5.40;;;;;;;19.77;85.82;101129.31;6043317;23;20026;-71
2022/07/26 07:13:21;;;;;;;6.68;6.28;;;;;;;19.73;85.58;101078.13;6052476;23;20020;-71
2022/07/26 07:15:48;;;;;;;6.15;5.85;;;;;;;19.94;83.67;101064.78;6046024;23;20034;-73
2022/07/26 07:18:14;;;;;;;5.43;5.18;;;;;;;20.41;82.16;101126.44;6053824;23;20018;-73
2022/07/26 07:20:41;;;;;;;6.53;6.22;;;;;;;19.60;82.82;101026.84;6022190;23;20503;-71
2022/07/26 07:23:07;;;;;;;5.60;5.30;;;;;;;20.42;83.67;101167.28;6019022;23;20018;-71
2022/07/26 07:25:34;;;;;;;6.35;6.05;;;;;;;20.53;83.01;101159.19;6052236;23;20029;-71
2022/07/26 07:28:00;;;;;;;5.70;5.40;;;;;;;20.47;83.50;101173.06;6048719;23;20027;-71
2022/07/26 07:30:27;;;;;;;6.00;5.60;;;;;;;20.57;83.38;101168.63;6024919;23;20178;-72
2022/07/26 07:32:54;;;;;;;5.80;5.50;;;;;;;19.95;83.63;101101.09;6045446;23;20601;-71
2022/07/26 07:35:22;;;;;;;6.07;5.78;;;;;;;20.33;83.61;101183.09;6018837;23;20247;-72
2022/07/26 07:37:48;;;;;;;5.78;5.47;;;;;;;20.56;83.32;101169.56;6052574;23;20357;-72
2022/07/26 07:40:18;;;;;;;5.47;5.28;;;;;;;20.65;82.10;101176.81;6044718;23;20508;-72
2022/07/26 07:42:45;;;;;;;5.60;5.40;;;;;;;20.44;81.28;101085.34;6010445;23;20358;-71
2022/07/26 07:45:11;;;;;;;5.57;5.28;;;;;;;20.92;80.23;101168.19;6070284;23;20018;-71
2022/07/26 07:47:38;;;;;;;7.57;7.18;;;;;;;20.83;79.03;101109.50;6055326;23;20018;-72
2022/07/26 07:50:05;;;;;;;5.75;5.45;;;;;;;20.95;78.69;101131.56;6060909;23;20028;-71
2022/07/26 07:52:31;;;;;;;6.32;6.03;;;;;;;21.24;77.86;101159.13;6031730;23;20171;-71
2022/07/26 07:54:57;;;;;;;6.10;5.80;;;;;;;21.21;77.74;101099.84;6027793;23;20257;-71
2022/07/26 07:57:44;;;;;;;6.20;5.90;;;;;;;21.14;78.21;101179.63;6071162;23;20442;-71
2022/07/26 08:00:14;;;;;;;5.95;5.55;;;;;;;21.12;78.81;101165.59;6053556;23;20618;-71
2022/07/26 08:02:41;;;;;;;6.70;6.32;;;;;;;20.83;78.29;101123.69;6075335;23;20034;-71
2022/07/26 08:05:08;;;;;;;6.82;6.47;;;;;;;20.82;78.60;101150.50;6049728;23;20387;-71
2022/07/26 08:07:39;;;;;;;5.50;5.20;;;;;;;20.92;78.64;101141.50;6074386;23;20196;-71
2022/07/26 08:10:07;;;;;;;5.70;5.40;;;;;;;21.33;77.95;101170.84;6036305;23;20019;-71
2022/07/26 08:12:33;;;;;;;6.45;6.15;;;;;;;21.68;76.29;101158.78;6080907;23;20089;-71
2022/07/26 08:15:01;;;;;;;6.60;6.13;;;;;;;21.41;75.40;101088.22;6043825;23;20074;-71
2022/07/26 08:17:33;;;;;;;7.22;6.78;;;;;;;21.86;73.67;101110.81;6076090;23;20010;-73
2022/07/26 08:20:00;;;;;;;6.15;5.78;;;;;;;21.58;74.10;101092.00;6053657;23;20025;-71
2022/07/26 08:22:27;;;;;;;6.15;5.85;;;;;;;22.17;73.59;101164.06;6059808;23;20452;-70
2022/07/26 08:24:53;;;;;;;6.32;5.97;;;;;;;22.00;72.37;101162.97;6077120;23;20040;-71
2022/07/26 08:27:19;;;;;;;5.50;5.30;;;;;;;21.99;72.66;101079.28;6083625;23;20033;-71
2022/07/26 08:29:46;;;;;;;6.93;6.55;;;;;;;21.63;72.02;100982.94;6075168;23;20261;-72
2022/07/26 08:32:12;;;;;;;5.72;5.43;;;;;;;22.57;71.20;101158.50;6035094;23;20028;-71
2022/07/26 08:34:39;;;;;;;6.63;6.32;;;;;;;22.64;71.21;101154.22;6052256;23;20022;-71
2022/07/26 08:37:06;;;;;;;5.93;5.63;;;;;;;22.45;70.38;101098.13;6064893;23;20086;-71
2022/07/26 08:39:43;;;;;;;5.72;5.43;;;;;;;22.54;70.39;101099.94;6079421;23;20778;-71
2022/07/26 08:42:14;;;;;;;5.93;5.63;;;;;;;22.94;70.23;101138.03;6072944;23;20025;-71
2022/07/26 08:44:45;;;;;;;7.03;6.72;;;;;;;22.62;69.84;101166.91;6075445;23;20196;-71
2022/07/26 08:47:16;;;;;;;5.75;5.45;;;;;;;22.25;71.02;101130.31;6049347;23;20030;-71
2022/07/26 08:50:00;;;;;;;6.78;6.28;;;;;;;22.59;71.08;101177.91;6068465;23;20037;-71
2022/07/26 08:52:28;;;;;;;6.28;5.97;;;;;;;22.68;69.92;101123.50;6054315;23;20316;-72
2022/07/26 08:54:54;;;;;;;6.00;5.70;;;;;;;22.97;67.76;101170.66;6039977;23;20015;-71
2022/07/26 08:57:20;;;;;;;6.15;5.80;;;;;;;22.01;70.40;101144.13;6067722;23;20097;-71
2022/07/26 09:00:17;;;;;;;6.03;5.72;;;;;;;22.74;69.95;101166.72;6049726;23;20075;-71
2022/07/26 09:02:44;;;;;;;6.95;6.63;;;;;;;22.40;68.60;101092.41;6070483;23;20025;-71
2022/07/26 09:05:12;;;;;;;5.60;5.30;;;;;;;22.50;66.97;101150.19;6074806;23;20018;-72
2022/07/26 09:07:39;;;;;;;6.72;6.43;;;;;;;22.84;67.31;101173.69;6070829;23;20032;-71
2022/07/26 09:10:09;;;;;;;6.10;5.80;;;;;;;22.87;67.26;101172.56;6045574;23;20020;-71
2022/07/26 09:12:36;;;;;;;6.75;6.35;;;;;;;23.18;65.34;101170.44;6072650;23;20439;-71
2022/07/26 09:15:04;;;;;;;6.10;5.80;;;;;;;23.64;64.14;101160.50;6047946;23;20037;-72
2022/07/26 09:17:40;;;;;;;6.30;6.00;;;;;;;23.62;62.10;101159.81;6065272;23;20142;-73
2022/07/26 09:20:09;;;;;;;5.78;5.47;;;;;;;23.33;64.45;101175.28;6073052;23;20024;-71
2022/07/26 09:22:37;;;;;;;6.55;6.25;;;;;;;23.40;63.68;101187.91;6042361;23;20010;-73
2022/07/26 09:25:19;;;;;;;5.30;5.10;;;;;;;22.91;64.41;101149.84;6072107;23;20361;-72
2022/07/26 09:27:46;;;;;;;6.07;5.77;;;;;;;23.45;64.14;101177.59;6075703;23;20092;-72
2022/07/26 09:30:12;;;;;;;5.90;5.60;;;;;;;23.38;62.10;101084.63;6048206;23;20278;-73
2022/07/26 09:32:39;;;;;;;6.93;6.55;;;;;;;24.18;59.37;101162.31;6035346;23;20011;-72
2022/07/26 09:35:15;;;;;;;6.20;5.90;;;;;;;24.55;57.81;101153.97;6070770;23;20031;-71
2022/07/26 09:38:11;;;;;;;5.85;5.55;;;;;;;24.77;57.82;101141.81;6075607;23;20022;-71
2022/07/26 09:40:38;;;;;;;5.97;5.68;;;;;;;24.54;57.56;101112.06;6032050;23;20219;-71
2022/07/26 09:43:06;;;;;;;5.32;5.13;;;;;;;24.87;55.76;101152.44;6042448;23;20268;-72
2022/07/26 09:45:35;;;;;;;7.15;6.75;;;;;;;24.51;56.40;101109.69;6074959;23;20021;-71
2022/07/26 09:48:03;;;;;;;6.30;5.90;;;;;;;24.77;56.30;101112.28;6074674;23;20303;-71
2022/07/26 09:50:31;;;;;;;5.80;5.50;;;;;;;25.08;56.97;101168.94;6066637;23;20010;-71
2022/07/26 09:53:07;;;;;;;5.95;5.65;;;;;;;25.13;55.52;101170.28;6058262;23;20022;-71
2022/07/26 09:55:36;;;;;;;6.93;6.60;;;;;;;25.47;54.76;101154.94;6060506;23;20406;-73
2022/07/26 09:58:15;;;;;;;5.93;5.60;;;;;;;24.99;54.67;101180.66;6071210;23;20026;-71
2022/07/26 10:00:42;;;;;;;6.85;6.45;;;;;;;25.26;54.74;101152.72;6072449;23;20502;-72
2022/07/26 10:03:09;;;;;;;5.90;5.60;;;;;;;24.82;53.62;101119.88;6076011;23;20020;-71
2022/07/26 10:05:36;;;;;;;7.22;6.82;;;;;;;25.33;53.52;101173.56;6059235;23;20396;-71
2022/07/26 10:08:05;;;;;;;5.75;5.45;;;;;;;25.97;53.46;101153.09;6041877;23;20065;-70
2022/07/26 10:10:49;;;;;;;5.88;5.57;;;;;;;26.61;50.15;101146.94;6035483;23;20047;-71
2022/07/26 10:13:16;;;;;;;5.82;5.53;;;;;;;26.02;50.02;101133.75;6073146;23;20018;-71
2022/07/26 10:15:47;;;;;;;7.38;6.97;;;;;;;25.93;49.87;101164.38;6072673;23;20085;-71
2022/07/26 10:18:36;;;;;;;5.80;5.50;;;;;;;25.26;51.24;101193.03;6067545;23;20510;-71
2022/07/26 10:21:15;;;;;;;5.97;5.68;;;;;;;24.97;51.37;101198.78;6069238;23;20009;-71
2022/07/26 10:23:44;;;;;;;6.15;5.75;;;;;;;24.60;52.41;101208.00;6071234;23;20019;-71
2022/07/26 10:26:29;;;;;;;5.60;5.30;;;;;;;24.12;53.27;101209.34;6051077;23;20121;-71
2022/07/26 10:29:14;;;;;;;5.72;5.43;;;;;;;23.97;54.16;101226.97;6068993;23;20258;-71
2022/07/26 10:32:01;;;;;;;7.18;6.88;;;;;;;24.00;53.21;101229.38;6054901;23;20116;-71
2022/07/26 10:34:37;;;;;;;6.28;5.97;;;;;;;24.20;52.91;101217.44;6032221;23;20271;-71
2022/07/26 10:37:19;;;;;;;5.80;5.50;;;;;;;24.63;53.37;101213.03;6023180;23;20025;-69
2022/07/26 10:39:45;;;;;;;5.93;5.63;;;;;;;24.12;52.54;101134.28;6073006;23;20018;-70
2022/07/26 10:42:11;;;;;;;5.55;5.25;;;;;;;25.01;52.03;101210.03;6077790;23;20010;-71
2022/07/26 10:44:40;;;;;;;7.25;6.82;;;;;;;25.05;52.46;101155.00;6074391;23;20026;-71
2022/07/26 10:47:07;;;;;;;5.80;5.50;;;;;;;25.74;50.48;101185.22;6061635;23;20416;-71
2022/07/26 10:49:38;;;;;;;6.70;6.40;;;;;;;25.46;49.37;101198.13;6050148;23;20036;-72
2022/07/26 10:52:06;;;;;;;5.78;5.47;;;;;;;25.25;50.56;101203.94;6070397;23;20097;-70
2022/07/26 10:54:56;;;;;;;6.85;6.55;;;;;;;25.28;50.46;101209.00;6073186;23;20086;-70
2022/07/26 10:57:23;;;;;;;5.75;5.45;;;;;;;25.24;46.88;101168.19;6050248;23;20255;-71
2022/07/26 10:59:49;;;;;;;5.88;5.57;;;;;;;24.97;45.78;101185.34;6066456;23;20896;-71
2022/07/26 11:02:25;;;;;;;5.75;5.40;;;;;;;24.75;46.59;101194.00;6053660;23;20104;-70
2022/07/26 11:05:13;;;;;;;5.95;5.65;;;;;;;25.48;47.30;101220.28;6075698;23;20073;-70
2022/07/26 11:08:12;;;;;;;6.82;6.53;;;;;;;25.58;47.19;101210.22;6078894;23;20042;-71
2022/07/26 11:10:41;;;;;;;7.32;6.93;;;;;;;25.78;47.73;101201.81;6002353;23;20025;-70
2022/07/26 11:13:16;;;;;;;5.80;5.50;;;;;;;26.03;45.93;101203.53;6021616;23;20105;-71
2022/07/26 11:15:48;;;;;;;6.63;6.32;;;;;;;25.91;46.48;101166.41;6057739;23;20389;-70
2022/07/26 11:18:18;;;;;;;5.80;5.55;;;;;;;26.34;45.63;101218.13;6072161;23;20028;-71
2022/07/26 11:20:47;;;;;;;6.53;6.22;;;;;;;26.43;45.86;101195.56;6048146;23;20139;-72
2022/07/26 11:23:31;;;;;;;5.90;5.60;;;;;;;26.33;45.66;101211.06;6066557;23;20030;-71
2022/07/26 11:26:18;;;;;;;5.63;5.32;;;;;;;25.88;46.23;101171.09;6072401;23;20017;-71
2022/07/26 11:28:49;;;;;;;6.30;6.00;;;;;;;25.70;48.38;101234.06;6058682;23;20106;-71
2022/07/26 11:31:16;;;;;;;5.57;5.38;;;;;;;25.21;51.08;101245.53;6087147;23;20026;-71